sensor_id;sensor_type;location;lat;lon;timestamp;pressure;altitude;pressure_sealevel;temperature;humidity
21361;BME280;10839;43.206;23.550;2024-03-29T00:00:24;96743.41;;;17.87;38.11
21361;BME280;10839;43.206;23.550;2024-03-29T00:02:50;96739.09;;;17.91;38.03
21361;BME280;10839;43.206;23.550;2024-03-29T00:05:15;96736.78;;;17.82;38.28
21361;BME280;10839;43.206;23.550;2024-03-29T00:07:42;96743.88;;;17.83;38.22
21361;BME280;10839;43.206;23.550;2024-03-29T00:10:07;96737.28;;;17.79;38.03
21361;BME280;10839;43.206;23.550;2024-03-29T00:12:32;96743.25;;;17.76;38.14
21361;BME280;10839;43.206;23.550;2024-03-29T00:14:58;96751.34;;;17.71;38.10
21361;BME280;10839;43.206;23.550;2024-03-29T00:17:23;96745.81;;;17.66;38.65
21361;BME280;10839;43.206;23.550;2024-03-29T00:19:48;96751.03;;;17.51;39.24
21361;BME280;10839;43.206;23.550;2024-03-29T00:22:14;96742.31;;;17.21;40.04
21361;BME280;10839;43.206;23.550;2024-03-29T00:24:39;96753.69;;;17.18;39.82
21361;BME280;10839;43.206;23.550;2024-03-29T00:27:04;96752.63;;;17.36;38.98
21361;BME280;10839;43.206;23.550;2024-03-29T00:29:30;96750.00;;;17.41;39.10
21361;BME280;10839;43.206;23.550;2024-03-29T00:31:55;96754.09;;;17.27;40.15
21361;BME280;10839;43.206;23.550;2024-03-29T00:34:21;96750.81;;;17.41;39.35
21361;BME280;10839;43.206;23.550;2024-03-29T00:36:46;96753.13;;;17.16;40.50
21361;BME280;10839;43.206;23.550;2024-03-29T00:39:12;96745.47;;;16.85;41.36
21361;BME280;10839;43.206;23.550;2024-03-29T00:41:37;96735.53;;;16.63;42.16
21361;BME280;10839;43.206;23.550;2024-03-29T00:44:03;96750.03;;;16.40;42.66
21361;BME280;10839;43.206;23.550;2024-03-29T00:46:28;96756.50;;;16.39;42.75
21361;BME280;10839;43.206;23.550;2024-03-29T00:48:54;96750.88;;;16.29;43.35
21361;BME280;10839;43.206;23.550;2024-03-29T00:51:19;96758.78;;;16.19;43.38
21361;BME280;10839;43.206;23.550;2024-03-29T00:53:44;96759.69;;;16.47;41.88
21361;BME280;10839;43.206;23.550;2024-03-29T00:56:10;96752.38;;;16.76;41.56
21361;BME280;10839;43.206;23.550;2024-03-29T00:58:35;96758.59;;;16.60;42.52
21361;BME280;10839;43.206;23.550;2024-03-29T01:01:00;96764.66;;;16.39;42.48
21361;BME280;10839;43.206;23.550;2024-03-29T01:03:26;96765.47;;;16.51;42.21
21361;BME280;10839;43.206;23.550;2024-03-29T01:05:54;96767.31;;;16.62;41.74
21361;BME280;10839;43.206;23.550;2024-03-29T01:08:19;96766.66;;;16.43;42.49
21361;BME280;10839;43.206;23.550;2024-03-29T01:10:45;96774.25;;;16.30;42.73
21361;BME280;10839;43.206;23.550;2024-03-29T01:13:10;96774.31;;;16.07;44.02
21361;BME280;10839;43.206;23.550;2024-03-29T01:15:35;96782.09;;;15.92;44.88
21361;BME280;10839;43.206;23.550;2024-03-29T01:18:01;96784.84;;;15.80;45.21
21361;BME280;10839;43.206;23.550;2024-03-29T01:20:26;96783.63;;;15.88;44.89
21361;BME280;10839;43.206;23.550;2024-03-29T01:22:51;96783.97;;;16.03;44.40
21361;BME280;10839;43.206;23.550;2024-03-29T01:25:17;96786.81;;;15.85;44.70
21361;BME280;10839;43.206;23.550;2024-03-29T01:27:43;96797.19;;;16.11;44.24
21361;BME280;10839;43.206;23.550;2024-03-29T01:30:09;96790.81;;;15.71;45.65
21361;BME280;10839;43.206;23.550;2024-03-29T01:32:34;96806.28;;;15.59;45.72
21361;BME280;10839;43.206;23.550;2024-03-29T01:34:59;96799.06;;;15.53;45.92
21361;BME280;10839;43.206;23.550;2024-03-29T01:37:25;96793.88;;;15.40;46.08
21361;BME280;10839;43.206;23.550;2024-03-29T01:39:51;96804.38;;;15.59;45.00
21361;BME280;10839;43.206;23.550;2024-03-29T01:42:16;96807.44;;;15.97;43.71
21361;BME280;10839;43.206;23.550;2024-03-29T01:44:41;96810.88;;;15.93;43.91
21361;BME280;10839;43.206;23.550;2024-03-29T01:47:07;96813.22;;;16.01;43.50
21361;BME280;10839;43.206;23.550;2024-03-29T01:49:33;96814.88;;;16.25;43.17
21361;BME280;10839;43.206;23.550;2024-03-29T01:51:58;96823.06;;;15.90;44.36
21361;BME280;10839;43.206;23.550;2024-03-29T01:54:24;96818.91;;;15.65;45.77
21361;BME280;10839;43.206;23.550;2024-03-29T01:56:49;96820.66;;;16.05;44.67
21361;BME280;10839;43.206;23.550;2024-03-29T01:59:15;96825.03;;;15.72;45.61
21361;BME280;10839;43.206;23.550;2024-03-29T02:01:41;96820.53;;;15.89;45.17
21361;BME280;10839;43.206;23.550;2024-03-29T02:04:10;96838.09;;;15.52;45.84
21361;BME280;10839;43.206;23.550;2024-03-29T02:06:35;96845.06;;;15.59;46.00
21361;BME280;10839;43.206;23.550;2024-03-29T02:09:01;96842.13;;;15.84;44.94
21361;BME280;10839;43.206;23.550;2024-03-29T02:11:28;96848.38;;;16.07;44.38
21361;BME280;10839;43.206;23.550;2024-03-29T02:13:54;96843.44;;;15.93;44.61
21361;BME280;10839;43.206;23.550;2024-03-29T02:16:19;96852.19;;;15.95;44.93
21361;BME280;10839;43.206;23.550;2024-03-29T02:18:45;96848.28;;;16.02;44.85
21361;BME280;10839;43.206;23.550;2024-03-29T02:21:11;96845.56;;;16.14;44.25
21361;BME280;10839;43.206;23.550;2024-03-29T02:23:37;96851.47;;;16.11;44.50
21361;BME280;10839;43.206;23.550;2024-03-29T02:26:03;96847.81;;;16.17;44.38
21361;BME280;10839;43.206;23.550;2024-03-29T02:28:29;96862.44;;;16.16;44.39
21361;BME280;10839;43.206;23.550;2024-03-29T02:30:55;96856.91;;;16.11;44.29
21361;BME280;10839;43.206;23.550;2024-03-29T02:33:21;96869.41;;;16.12;44.53
21361;BME280;10839;43.206;23.550;2024-03-29T02:35:46;96872.34;;;16.10;44.72
21361;BME280;10839;43.206;23.550;2024-03-29T02:38:11;96882.63;;;15.97;45.07
21361;BME280;10839;43.206;23.550;2024-03-29T02:40:37;96873.66;;;16.08;45.10
21361;BME280;10839;43.206;23.550;2024-03-29T02:43:02;96886.16;;;16.09;45.01
21361;BME280;10839;43.206;23.550;2024-03-29T02:45:28;96887.59;;;16.23;44.40
21361;BME280;10839;43.206;23.550;2024-03-29T02:47:53;96896.69;;;16.51;43.72
21361;BME280;10839;43.206;23.550;2024-03-29T02:50:18;96908.84;;;16.49;43.81
21361;BME280;10839;43.206;23.550;2024-03-29T02:52:44;96913.47;;;16.48;44.15
21361;BME280;10839;43.206;23.550;2024-03-29T02:55:09;96918.28;;;16.12;45.22
21361;BME280;10839;43.206;23.550;2024-03-29T02:57:40;96932.06;;;15.99;45.46
21361;BME280;10839;43.206;23.550;2024-03-29T03:00:07;96929.34;;;15.99;45.54
21361;BME280;10839;43.206;23.550;2024-03-29T03:02:36;96934.31;;;16.02;45.61
21361;BME280;10839;43.206;23.550;2024-03-29T03:05:02;96936.94;;;16.20;45.40
21361;BME280;10839;43.206;23.550;2024-03-29T03:07:27;96935.50;;;16.06;45.59
21361;BME280;10839;43.206;23.550;2024-03-29T03:10:12;96935.00;;;16.09;45.68
21361;BME280;10839;43.206;23.550;2024-03-29T03:12:55;96941.13;;;15.93;46.13
21361;BME280;10839;43.206;23.550;2024-03-29T03:15:21;96947.53;;;16.10;45.78
21361;BME280;10839;43.206;23.550;2024-03-29T03:17:46;96952.63;;;16.29;44.82
21361;BME280;10839;43.206;23.550;2024-03-29T03:20:12;96964.91;;;16.32;45.28
21361;BME280;10839;43.206;23.550;2024-03-29T03:22:38;96969.75;;;16.30;45.10
21361;BME280;10839;43.206;23.550;2024-03-29T03:25:04;96970.16;;;16.56;44.64
21361;BME280;10839;43.206;23.550;2024-03-29T03:27:29;96967.69;;;16.55;44.75
21361;BME280;10839;43.206;23.550;2024-03-29T03:29:55;96975.06;;;16.36;45.44
21361;BME280;10839;43.206;23.550;2024-03-29T03:32:20;96978.91;;;16.06;46.54
21361;BME280;10839;43.206;23.550;2024-03-29T03:34:45;96981.50;;;16.01;46.66
21361;BME280;10839;43.206;23.550;2024-03-29T03:37:11;96988.88;;;16.12;46.43
21361;BME280;10839;43.206;23.550;2024-03-29T03:39:37;96990.25;;;16.03;46.37
21361;BME280;10839;43.206;23.550;2024-03-29T03:42:02;96996.91;;;16.18;46.05
21361;BME280;10839;43.206;23.550;2024-03-29T03:44:28;97004.69;;;16.15;46.35
21361;BME280;10839;43.206;23.550;2024-03-29T03:46:53;97018.50;;;16.13;46.43
21361;BME280;10839;43.206;23.550;2024-03-29T03:49:19;97025.09;;;16.17;46.49
21361;BME280;10839;43.206;23.550;2024-03-29T03:51:44;97018.25;;;16.15;46.83
21361;BME280;10839;43.206;23.550;2024-03-29T03:54:09;97021.88;;;16.09;46.76
21361;BME280;10839;43.206;23.550;2024-03-29T03:56:35;97027.56;;;16.19;46.66
21361;BME280;10839;43.206;23.550;2024-03-29T03:59:00;97036.31;;;16.21;46.74
21361;BME280;10839;43.206;23.550;2024-03-29T04:01:26;97040.31;;;16.07;46.94
21361;BME280;10839;43.206;23.550;2024-03-29T04:03:51;97052.06;;;16.01;47.35
21361;BME280;10839;43.206;23.550;2024-03-29T04:06:16;97060.34;;;16.06;47.58
21361;BME280;10839;43.206;23.550;2024-03-29T04:08:43;97062.03;;;16.07;47.38
21361;BME280;10839;43.206;23.550;2024-03-29T04:11:09;97072.38;;;15.98;47.86
21361;BME280;10839;43.206;23.550;2024-03-29T04:13:34;97075.75;;;15.94;47.74
21361;BME280;10839;43.206;23.550;2024-03-29T04:16:02;97079.97;;;16.08;47.35
21361;BME280;10839;43.206;23.550;2024-03-29T04:18:27;97083.75;;;16.07;47.19
21361;BME280;10839;43.206;23.550;2024-03-29T04:20:56;97088.03;;;16.26;46.69
21361;BME280;10839;43.206;23.550;2024-03-29T04:23:22;97081.34;;;16.28;46.85
21361;BME280;10839;43.206;23.550;2024-03-29T04:25:54;97088.13;;;16.19;47.36
21361;BME280;10839;43.206;23.550;2024-03-29T04:28:19;97103.16;;;16.22;47.39
21361;BME280;10839;43.206;23.550;2024-03-29T04:30:54;97092.03;;;16.12;47.58
21361;BME280;10839;43.206;23.550;2024-03-29T04:33:19;97103.41;;;16.02;48.49
21361;BME280;10839;43.206;23.550;2024-03-29T04:35:58;97111.47;;;15.79;48.75
21361;BME280;10839;43.206;23.550;2024-03-29T04:38:25;97098.81;;;16.03;48.36
21361;BME280;10839;43.206;23.550;2024-03-29T04:40:51;97112.22;;;16.57;46.87
21361;BME280;10839;43.206;23.550;2024-03-29T04:43:17;97124.69;;;17.45;45.06
21361;BME280;10839;43.206;23.550;2024-03-29T04:45:43;97135.28;;;18.49;43.20
21361;BME280;10839;43.206;23.550;2024-03-29T04:48:08;97135.09;;;20.37;39.25
21361;BME280;10839;43.206;23.550;2024-03-29T04:50:35;97142.72;;;22.03;36.74
21361;BME280;10839;43.206;23.550;2024-03-29T04:53:00;97151.22;;;22.78;35.11
21361;BME280;10839;43.206;23.550;2024-03-29T04:55:25;97159.78;;;23.62;33.64
21361;BME280;10839;43.206;23.550;2024-03-29T04:57:51;97156.19;;;24.55;32.44
21361;BME280;10839;43.206;23.550;2024-03-29T05:00:16;97159.59;;;25.24;30.79
21361;BME280;10839;43.206;23.550;2024-03-29T05:02:42;97164.53;;;26.37;29.58
21361;BME280;10839;43.206;23.550;2024-03-29T05:05:07;97184.97;;;27.39;28.54
21361;BME280;10839;43.206;23.550;2024-03-29T05:07:32;97178.13;;;27.82;27.61
21361;BME280;10839;43.206;23.550;2024-03-29T05:09:58;97165.94;;;28.56;26.84
21361;BME280;10839;43.206;23.550;2024-03-29T05:12:24;97173.59;;;28.05;27.19
21361;BME280;10839;43.206;23.550;2024-03-29T05:14:50;97191.16;;;27.12;28.01
21361;BME280;10839;43.206;23.550;2024-03-29T05:17:15;97180.25;;;27.39;27.69
21361;BME280;10839;43.206;23.550;2024-03-29T05:19:42;97184.94;;;27.90;27.63
21361;BME280;10839;43.206;23.550;2024-03-29T05:22:08;97186.22;;;28.78;25.87
21361;BME280;10839;43.206;23.550;2024-03-29T05:24:33;97193.50;;;29.81;25.23
21361;BME280;10839;43.206;23.550;2024-03-29T05:26:58;97190.59;;;29.86;25.16
21361;BME280;10839;43.206;23.550;2024-03-29T05:29:24;97187.56;;;29.52;25.13
21361;BME280;10839;43.206;23.550;2024-03-29T05:31:49;97189.81;;;31.12;23.64
21361;BME280;10839;43.206;23.550;2024-03-29T05:34:15;97191.72;;;32.98;22.66
21361;BME280;10839;43.206;23.550;2024-03-29T05:36:40;97192.41;;;32.95;21.90
21361;BME280;10839;43.206;23.550;2024-03-29T05:39:05;97189.53;;;33.53;21.83
21361;BME280;10839;43.206;23.550;2024-03-29T05:41:31;97201.47;;;34.27;21.21
21361;BME280;10839;43.206;23.550;2024-03-29T05:43:57;97203.66;;;34.66;20.80
21361;BME280;10839;43.206;23.550;2024-03-29T05:46:22;97208.09;;;34.79;20.71
21361;BME280;10839;43.206;23.550;2024-03-29T05:48:48;97210.88;;;35.16;20.55
21361;BME280;10839;43.206;23.550;2024-03-29T05:51:13;97224.50;;;36.48;19.69
21361;BME280;10839;43.206;23.550;2024-03-29T05:53:39;97208.47;;;37.27;19.37
21361;BME280;10839;43.206;23.550;2024-03-29T05:56:05;97204.78;;;36.91;19.01
21361;BME280;10839;43.206;23.550;2024-03-29T05:58:30;97201.28;;;37.13;18.32
21361;BME280;10839;43.206;23.550;2024-03-29T06:00:56;97211.28;;;36.64;18.96
21361;BME280;10839;43.206;23.550;2024-03-29T06:03:21;97207.69;;;36.79;18.52
21361;BME280;10839;43.206;23.550;2024-03-29T06:05:47;97202.06;;;36.48;18.90
21361;BME280;10839;43.206;23.550;2024-03-29T06:08:13;97198.75;;;37.97;18.05
21361;BME280;10839;43.206;23.550;2024-03-29T06:10:38;97202.63;;;38.08;18.64
21361;BME280;10839;43.206;23.550;2024-03-29T06:13:03;97213.88;;;38.91;17.23
21361;BME280;10839;43.206;23.550;2024-03-29T06:15:36;97220.13;;;39.04;17.12
21361;BME280;10839;43.206;23.550;2024-03-29T06:18:20;97223.75;;;39.30;17.14
21361;BME280;10839;43.206;23.550;2024-03-29T06:20:46;97221.16;;;39.44;17.12
21361;BME280;10839;43.206;23.550;2024-03-29T06:23:12;97231.28;;;39.00;17.29
21361;BME280;10839;43.206;23.550;2024-03-29T06:25:38;97227.00;;;38.61;17.37
21361;BME280;10839;43.206;23.550;2024-03-29T06:28:04;97231.53;;;38.92;17.40
21361;BME280;10839;43.206;23.550;2024-03-29T06:30:29;97231.25;;;39.45;17.00
21361;BME280;10839;43.206;23.550;2024-03-29T06:32:55;97226.19;;;39.58;17.06
21361;BME280;10839;43.206;23.550;2024-03-29T06:35:20;97222.59;;;40.20;16.38
21361;BME280;10839;43.206;23.550;2024-03-29T06:37:47;97224.84;;;39.78;16.14
21361;BME280;10839;43.206;23.550;2024-03-29T06:40:12;97230.44;;;39.75;15.55
21361;BME280;10839;43.206;23.550;2024-03-29T06:42:38;97229.44;;;39.08;15.78
21361;BME280;10839;43.206;23.550;2024-03-29T06:45:03;97228.38;;;39.98;15.77
21361;BME280;10839;43.206;23.550;2024-03-29T06:47:30;97231.56;;;39.93;15.41
21361;BME280;10839;43.206;23.550;2024-03-29T06:49:56;97231.25;;;39.19;16.26
21361;BME280;10839;43.206;23.550;2024-03-29T06:52:21;97232.31;;;39.37;15.88
21361;BME280;10839;43.206;23.550;2024-03-29T06:54:47;97231.00;;;39.84;15.36
21361;BME280;10839;43.206;23.550;2024-03-29T06:57:12;97230.63;;;38.84;15.62
21361;BME280;10839;43.206;23.550;2024-03-29T06:59:40;97223.88;;;38.24;16.17
21361;BME280;10839;43.206;23.550;2024-03-29T07:02:06;97228.59;;;37.48;17.22
21361;BME280;10839;43.206;23.550;2024-03-29T07:04:31;97235.25;;;37.59;17.12
21361;BME280;10839;43.206;23.550;2024-03-29T07:06:56;97242.97;;;38.57;16.63
21361;BME280;10839;43.206;23.550;2024-03-29T07:09:22;97252.66;;;38.18;16.52
21361;BME280;10839;43.206;23.550;2024-03-29T07:11:48;97252.66;;;39.01;16.68
21361;BME280;10839;43.206;23.550;2024-03-29T07:14:14;97249.06;;;38.40;17.14
21361;BME280;10839;43.206;23.550;2024-03-29T07:16:41;97252.28;;;37.66;17.55
21361;BME280;10839;43.206;23.550;2024-03-29T07:19:06;97258.97;;;37.77;17.14
21361;BME280;10839;43.206;23.550;2024-03-29T07:21:31;97257.16;;;37.84;16.96
21361;BME280;10839;43.206;23.550;2024-03-29T07:23:57;97273.47;;;37.44;17.41
21361;BME280;10839;43.206;23.550;2024-03-29T07:26:22;97263.91;;;36.12;18.38
21361;BME280;10839;43.206;23.550;2024-03-29T07:28:48;97264.28;;;36.38;18.12
21361;BME280;10839;43.206;23.550;2024-03-29T07:31:13;97275.34;;;36.62;17.60
21361;BME280;10839;43.206;23.550;2024-03-29T07:33:39;97260.06;;;34.68;18.93
21361;BME280;10839;43.206;23.550;2024-03-29T07:36:05;97271.50;;;34.63;18.96
21361;BME280;10839;43.206;23.550;2024-03-29T07:38:31;97262.56;;;35.06;18.80
21361;BME280;10839;43.206;23.550;2024-03-29T07:40:56;97268.00;;;35.63;18.58
21361;BME280;10839;43.206;23.550;2024-03-29T07:43:22;97257.28;;;35.65;18.69
21361;BME280;10839;43.206;23.550;2024-03-29T07:45:48;97260.91;;;36.05;17.90
21361;BME280;10839;43.206;23.550;2024-03-29T07:48:14;97263.97;;;36.00;18.36
21361;BME280;10839;43.206;23.550;2024-03-29T07:50:40;97265.28;;;36.46;17.75
21361;BME280;10839;43.206;23.550;2024-03-29T07:53:06;97262.31;;;36.27;18.02
21361;BME280;10839;43.206;23.550;2024-03-29T07:55:31;97258.84;;;36.18;17.78
21361;BME280;10839;43.206;23.550;2024-03-29T07:57:57;97259.53;;;36.85;17.84
21361;BME280;10839;43.206;23.550;2024-03-29T08:00:23;97263.59;;;36.72;17.38
21361;BME280;10839;43.206;23.550;2024-03-29T08:02:48;97254.34;;;37.18;17.71
21361;BME280;10839;43.206;23.550;2024-03-29T08:05:15;97258.19;;;36.79;17.18
21361;BME280;10839;43.206;23.550;2024-03-29T08:07:40;97255.91;;;36.69;17.21
21361;BME280;10839;43.206;23.550;2024-03-29T08:10:06;97243.28;;;36.05;18.06
21361;BME280;10839;43.206;23.550;2024-03-29T08:12:31;97244.78;;;35.62;18.19
21361;BME280;10839;43.206;23.550;2024-03-29T08:14:58;97245.38;;;35.56;18.12
21361;BME280;10839;43.206;23.550;2024-03-29T08:17:23;97253.19;;;36.73;17.54
21361;BME280;10839;43.206;23.550;2024-03-29T08:19:49;97244.22;;;36.67;17.60
21361;BME280;10839;43.206;23.550;2024-03-29T08:22:14;97223.50;;;36.13;18.20
21361;BME280;10839;43.206;23.550;2024-03-29T08:24:40;97224.31;;;36.29;18.31
21361;BME280;10839;43.206;23.550;2024-03-29T08:27:05;97227.84;;;35.71;18.50
21361;BME280;10839;43.206;23.550;2024-03-29T08:29:30;97217.41;;;35.44;18.50
21361;BME280;10839;43.206;23.550;2024-03-29T08:31:56;97224.41;;;34.90;18.78
21361;BME280;10839;43.206;23.550;2024-03-29T08:34:22;97218.47;;;34.79;19.06
21361;BME280;10839;43.206;23.550;2024-03-29T08:36:47;97220.22;;;35.08;19.21
21361;BME280;10839;43.206;23.550;2024-03-29T08:39:12;97220.22;;;35.08;19.41
21361;BME280;10839;43.206;23.550;2024-03-29T08:41:38;97221.19;;;35.12;19.26
21361;BME280;10839;43.206;23.550;2024-03-29T08:44:04;97222.88;;;34.11;20.25
21361;BME280;10839;43.206;23.550;2024-03-29T08:46:29;97219.69;;;33.80;20.48
21361;BME280;10839;43.206;23.550;2024-03-29T08:48:55;97219.84;;;33.63;20.00
21361;BME280;10839;43.206;23.550;2024-03-29T08:51:21;97215.88;;;33.64;20.47
21361;BME280;10839;43.206;23.550;2024-03-29T08:53:46;97216.50;;;33.70;20.32
21361;BME280;10839;43.206;23.550;2024-03-29T08:56:12;97216.66;;;33.03;20.48
21361;BME280;10839;43.206;23.550;2024-03-29T08:58:37;97216.91;;;33.39;20.72
21361;BME280;10839;43.206;23.550;2024-03-29T09:01:04;97210.84;;;33.37;20.72
21361;BME280;10839;43.206;23.550;2024-03-29T09:03:29;97206.44;;;33.56;20.18
21361;BME280;10839;43.206;23.550;2024-03-29T09:05:55;97216.97;;;33.51;20.31
21361;BME280;10839;43.206;23.550;2024-03-29T09:08:20;97204.97;;;32.72;20.85
21361;BME280;10839;43.206;23.550;2024-03-29T09:10:46;97208.34;;;32.02;21.07
21361;BME280;10839;43.206;23.550;2024-03-29T09:13:11;97205.84;;;32.17;21.90
21361;BME280;10839;43.206;23.550;2024-03-29T09:15:37;97209.88;;;32.37;21.31
21361;BME280;10839;43.206;23.550;2024-03-29T09:18:02;97206.38;;;31.43;21.70
21361;BME280;10839;43.206;23.550;2024-03-29T09:20:35;97209.72;;;30.19;22.99
21361;BME280;10839;43.206;23.550;2024-03-29T09:23:00;97211.34;;;30.81;22.57
21361;BME280;10839;43.206;23.550;2024-03-29T09:25:26;97208.16;;;31.98;21.94
21361;BME280;10839;43.206;23.550;2024-03-29T09:27:51;97209.75;;;32.16;21.62
21361;BME280;10839;43.206;23.550;2024-03-29T09:30:17;97198.41;;;32.38;21.81
21361;BME280;10839;43.206;23.550;2024-03-29T09:32:44;97190.78;;;32.01;21.66
21361;BME280;10839;43.206;23.550;2024-03-29T09:35:09;97198.69;;;31.65;22.02
21361;BME280;10839;43.206;23.550;2024-03-29T09:37:34;97196.03;;;31.94;21.68
21361;BME280;10839;43.206;23.550;2024-03-29T09:40:03;97199.97;;;31.25;22.43
21361;BME280;10839;43.206;23.550;2024-03-29T09:42:29;97199.19;;;31.33;21.98
21361;BME280;10839;43.206;23.550;2024-03-29T09:44:57;97195.75;;;29.71;23.15
21361;BME280;10839;43.206;23.550;2024-03-29T09:47:23;97192.16;;;28.85;23.90
21361;BME280;10839;43.206;23.550;2024-03-29T09:49:50;97194.44;;;27.51;25.44
21361;BME280;10839;43.206;23.550;2024-03-29T09:52:18;97183.53;;;29.58;23.48
21361;BME280;10839;43.206;23.550;2024-03-29T09:54:45;97182.72;;;30.80;22.50
21361;BME280;10839;43.206;23.550;2024-03-29T09:57:10;97181.47;;;30.17;22.92
21361;BME280;10839;43.206;23.550;2024-03-29T09:59:37;97187.59;;;29.03;24.20
21361;BME280;10839;43.206;23.550;2024-03-29T10:02:04;97188.94;;;29.19;23.96
21361;BME280;10839;43.206;23.550;2024-03-29T10:04:35;97183.25;;;28.34;24.97
21361;BME280;10839;43.206;23.550;2024-03-29T10:07:01;97176.19;;;28.55;24.52
21361;BME280;10839;43.206;23.550;2024-03-29T10:09:28;97187.78;;;29.20;24.06
21361;BME280;10839;43.206;23.550;2024-03-29T10:11:57;97196.34;;;30.21;24.07
21361;BME280;10839;43.206;23.550;2024-03-29T10:14:22;97193.19;;;30.36;23.73
21361;BME280;10839;43.206;23.550;2024-03-29T10:16:50;97188.97;;;30.94;23.11
21361;BME280;10839;43.206;23.550;2024-03-29T10:19:16;97193.91;;;30.19;23.34
21361;BME280;10839;43.206;23.550;2024-03-29T10:21:41;97193.00;;;30.32;23.42
21361;BME280;10839;43.206;23.550;2024-03-29T10:24:11;97180.91;;;30.76;23.49
21361;BME280;10839;43.206;23.550;2024-03-29T10:26:40;97181.78;;;31.02;23.69
21361;BME280;10839;43.206;23.550;2024-03-29T10:29:05;97175.59;;;31.13;24.04
21361;BME280;10839;43.206;23.550;2024-03-29T10:31:34;97175.94;;;30.56;23.55
21361;BME280;10839;43.206;23.550;2024-03-29T10:34:03;97175.00;;;30.69;23.25
21361;BME280;10839;43.206;23.550;2024-03-29T10:36:30;97160.66;;;30.84;23.45
21361;BME280;10839;43.206;23.550;2024-03-29T10:39:01;97162.56;;;29.96;23.84
21361;BME280;10839;43.206;23.550;2024-03-29T10:41:27;97155.22;;;29.92;23.84
21361;BME280;10839;43.206;23.550;2024-03-29T10:43:53;97154.91;;;29.71;23.71
21361;BME280;10839;43.206;23.550;2024-03-29T10:46:20;97157.81;;;29.22;24.39
21361;BME280;10839;43.206;23.550;2024-03-29T10:48:46;97159.06;;;30.44;23.63
21361;BME280;10839;43.206;23.550;2024-03-29T10:51:14;97158.25;;;30.52;23.65
21361;BME280;10839;43.206;23.550;2024-03-29T10:53:40;97159.16;;;30.78;23.63
21361;BME280;10839;43.206;23.550;2024-03-29T10:56:07;97160.00;;;30.87;23.56
21361;BME280;10839;43.206;23.550;2024-03-29T10:58:33;97159.38;;;31.07;24.10
21361;BME280;10839;43.206;23.550;2024-03-29T11:01:00;97164.25;;;30.93;23.04
21361;BME280;10839;43.206;23.550;2024-03-29T11:03:36;97160.44;;;29.93;24.10
21361;BME280;10839;43.206;23.550;2024-03-29T11:06:04;97151.75;;;30.65;23.92
21361;BME280;10839;43.206;23.550;2024-03-29T11:08:31;97153.13;;;30.93;23.75
21361;BME280;10839;43.206;23.550;2024-03-29T11:10:59;97159.41;;;31.24;23.52
21361;BME280;10839;43.206;23.550;2024-03-29T11:15:57;97152.47;;;30.79;23.85
21361;BME280;10839;43.206;23.550;2024-03-29T11:18:25;97156.72;;;30.85;23.54
21361;BME280;10839;43.206;23.550;2024-03-29T11:20:51;97151.38;;;30.41;23.68
21361;BME280;10839;43.206;23.550;2024-03-29T11:23:18;97146.75;;;30.36;23.68
21361;BME280;10839;43.206;23.550;2024-03-29T11:25:46;97147.09;;;30.35;23.67
21361;BME280;10839;43.206;23.550;2024-03-29T11:28:14;97139.63;;;30.44;23.64
21361;BME280;10839;43.206;23.550;2024-03-29T11:30:50;97149.44;;;30.50;23.86
21361;BME280;10839;43.206;23.550;2024-03-29T11:33:29;97152.03;;;30.38;23.97
21361;BME280;10839;43.206;23.550;2024-03-29T11:35:55;97149.81;;;29.07;24.33
21361;BME280;10839;43.206;23.550;2024-03-29T11:38:21;97141.03;;;29.71;24.08
21361;BME280;10839;43.206;23.550;2024-03-29T11:43:30;97144.56;;;28.70;24.82
21361;BME280;10839;43.206;23.550;2024-03-29T11:45:57;97139.25;;;28.06;25.31
21361;BME280;10839;43.206;23.550;2024-03-29T11:48:23;97130.72;;;28.56;25.21
21361;BME280;10839;43.206;23.550;2024-03-29T11:50:52;97130.13;;;28.95;24.99
21361;BME280;10839;43.206;23.550;2024-03-29T11:53:18;97131.31;;;29.38;24.95
21361;BME280;10839;43.206;23.550;2024-03-29T11:55:44;97136.66;;;29.26;24.74
21361;BME280;10839;43.206;23.550;2024-03-29T11:58:09;97128.19;;;29.31;24.96
21361;BME280;10839;43.206;23.550;2024-03-29T12:00:34;97127.94;;;29.41;25.29
21361;BME280;10839;43.206;23.550;2024-03-29T12:03:00;97118.88;;;29.49;25.30
21361;BME280;10839;43.206;23.550;2024-03-29T12:05:25;97126.66;;;29.47;24.96
21361;BME280;10839;43.206;23.550;2024-03-29T12:07:51;97116.56;;;29.51;25.48
21361;BME280;10839;43.206;23.550;2024-03-29T12:10:17;97112.22;;;29.15;25.71
21361;BME280;10839;43.206;23.550;2024-03-29T12:12:42;97119.16;;;28.68;26.18
21361;BME280;10839;43.206;23.550;2024-03-29T12:15:08;97121.91;;;29.04;26.45
21361;BME280;10839;43.206;23.550;2024-03-29T12:17:34;97121.88;;;29.17;26.07
21361;BME280;10839;43.206;23.550;2024-03-29T12:19:59;97119.91;;;28.82;26.01
21361;BME280;10839;43.206;23.550;2024-03-29T12:22:30;97124.47;;;28.78;26.43
21361;BME280;10839;43.206;23.550;2024-03-29T12:24:55;97126.06;;;27.71;27.20
21361;BME280;10839;43.206;23.550;2024-03-29T12:27:21;97127.84;;;26.97;28.67
21361;BME280;10839;43.206;23.550;2024-03-29T12:29:49;97128.03;;;27.38;28.21
21361;BME280;10839;43.206;23.550;2024-03-29T12:32:18;97127.84;;;26.97;28.44
21361;BME280;10839;43.206;23.550;2024-03-29T12:34:43;97115.28;;;26.25;29.31
21361;BME280;10839;43.206;23.550;2024-03-29T12:37:09;97114.22;;;26.45;29.12
21361;BME280;10839;43.206;23.550;2024-03-29T12:39:35;97107.31;;;26.24;29.43
21361;BME280;10839;43.206;23.550;2024-03-29T12:42:02;97106.91;;;26.54;29.27
21361;BME280;10839;43.206;23.550;2024-03-29T12:44:28;97118.59;;;26.70;28.66
21361;BME280;10839;43.206;23.550;2024-03-29T12:46:55;97099.63;;;26.21;29.64
21361;BME280;10839;43.206;23.550;2024-03-29T12:49:23;97105.28;;;26.53;29.76